Terminal Aerodrome Forecast
Issued by NWS

Home | Current Version | Previous Version | Text Only | Print | Product List | Glossary On
Versions: 1 2 3 4 5 6 7 8 9 10 11 12 13 14 15 16 17 18 19 20 21 22 23 24 25 26 27 28 29 30
355
FTUS41 KOKX 221754 AAA
TAFGON
TAF AMD
KGON 221754Z 2218/2318 14008KT 1 1/2SM -RA BR OVC020
     FM222200 13009KT 2SM -RA BR OVC004
     FM230400 16009KT 2SM -RA BR OVC004
     FM230700 VRB03KT 2SM BR OVC004
     FM231300 03007KT 2SM BR OVC003
     FM231500 05008KT 5SM BR OVC007=

USA.gov is the U.S. government's official web portal to all federal, state and local government web resources and services.